sensor_id;sensor_type;location;lat;lon;timestamp;temperature;humidity
6954;DHT22;3516;47.980;8.808;2023-03-01T07:25:42;-0.40;99.90
6954;DHT22;3516;47.980;8.808;2023-03-01T07:28:10;-1.30;99.90
6954;DHT22;3516;47.980;8.808;2023-03-01T07:30:37;-1.40;99.90
6954;DHT22;3516;47.980;8.808;2023-03-01T07:33:04;-1.30;99.90
6954;DHT22;3516;47.980;8.808;2023-03-01T07:35:30;-1.30;99.90
6954;DHT22;3516;47.980;8.808;2023-03-01T07:37:58;-1.20;99.90
6954;DHT22;3516;47.980;8.808;2023-03-01T07:40:25;-1.20;99.90
6954;DHT22;3516;47.980;8.808;2023-03-01T07:42:55;-1.30;99.90
6954;DHT22;3516;47.980;8.808;2023-03-01T07:45:23;-1.20;99.90
6954;DHT22;3516;47.980;8.808;2023-03-01T07:47:50;-1.20;99.90
6954;DHT22;3516;47.980;8.808;2023-03-01T07:50:17;-1.20;99.90
6954;DHT22;3516;47.980;8.808;2023-03-01T07:52:45;-1.20;99.90
6954;DHT22;3516;47.980;8.808;2023-03-01T07:55:12;-1.20;99.90
6954;DHT22;3516;47.980;8.808;2023-03-01T07:57:39;-1.20;99.90
6954;DHT22;3516;47.980;8.808;2023-03-01T08:00:07;-1.20;99.90
6954;DHT22;3516;47.980;8.808;2023-03-01T08:02:37;-1.20;99.90
6954;DHT22;3516;47.980;8.808;2023-03-01T08:05:06;-1.20;99.90
6954;DHT22;3516;47.980;8.808;2023-03-01T08:07:33;-1.20;99.90
6954;DHT22;3516;47.980;8.808;2023-03-01T08:09:59;-1.20;99.90
6954;DHT22;3516;47.980;8.808;2023-03-01T08:12:26;-1.20;99.90
6954;DHT22;3516;47.980;8.808;2023-03-01T08:14:53;-1.20;99.90
6954;DHT22;3516;47.980;8.808;2023-03-01T08:17:21;-1.20;99.90
6954;DHT22;3516;47.980;8.808;2023-03-01T08:19:49;-1.10;99.90
6954;DHT22;3516;47.980;8.808;2023-03-01T08:22:15;-1.10;99.90
6954;DHT22;3516;47.980;8.808;2023-03-01T08:24:42;-1.10;99.90
6954;DHT22;3516;47.980;8.808;2023-03-01T08:27:09;-1.10;99.90
6954;DHT22;3516;47.980;8.808;2023-03-01T08:29:37;-1.10;99.90
6954;DHT22;3516;47.980;8.808;2023-03-01T08:32:04;-1.10;99.90
6954;DHT22;3516;47.980;8.808;2023-03-01T08:34:31;-1.10;99.90
6954;DHT22;3516;47.980;8.808;2023-03-01T08:36:59;-1.10;99.90
6954;DHT22;3516;47.980;8.808;2023-03-01T08:39:25;-1.10;99.90
6954;DHT22;3516;47.980;8.808;2023-03-01T08:41:52;-1.10;99.90
6954;DHT22;3516;47.980;8.808;2023-03-01T08:44:19;-1.10;99.90
6954;DHT22;3516;47.980;8.808;2023-03-01T08:46:46;-1.10;99.90
6954;DHT22;3516;47.980;8.808;2023-03-01T08:49:16;-1.10;99.90
6954;DHT22;3516;47.980;8.808;2023-03-01T08:51:44;-1.10;99.90
6954;DHT22;3516;47.980;8.808;2023-03-01T08:54:14;-1.10;99.90
6954;DHT22;3516;47.980;8.808;2023-03-01T08:56:41;-1.00;99.90
6954;DHT22;3516;47.980;8.808;2023-03-01T08:59:09;-1.00;99.90
6954;DHT22;3516;47.980;8.808;2023-03-01T09:01:36;-1.00;99.90
6954;DHT22;3516;47.980;8.808;2023-03-01T09:04:03;-1.00;99.90
6954;DHT22;3516;47.980;8.808;2023-03-01T09:06:30;-1.00;99.90
6954;DHT22;3516;47.980;8.808;2023-03-01T09:08:58;-1.00;99.90
6954;DHT22;3516;47.980;8.808;2023-03-01T09:11:28;-1.00;99.90
6954;DHT22;3516;47.980;8.808;2023-03-01T09:13:55;-1.00;99.90
6954;DHT22;3516;47.980;8.808;2023-03-01T09:16:22;-0.90;99.90
6954;DHT22;3516;47.980;8.808;2023-03-01T09:18:50;-0.90;99.90
6954;DHT22;3516;47.980;8.808;2023-03-01T09:21:18;-0.90;99.90
6954;DHT22;3516;47.980;8.808;2023-03-01T09:23:47;-0.90;99.90
6954;DHT22;3516;47.980;8.808;2023-03-01T09:26:15;-0.90;99.90
6954;DHT22;3516;47.980;8.808;2023-03-01T09:28:46;-0.80;99.90
6954;DHT22;3516;47.980;8.808;2023-03-01T09:31:13;-0.80;99.90
6954;DHT22;3516;47.980;8.808;2023-03-01T09:33:41;-0.80;99.90
6954;DHT22;3516;47.980;8.808;2023-03-01T09:36:11;-0.80;99.90
6954;DHT22;3516;47.980;8.808;2023-03-01T09:38:38;-0.80;99.90
6954;DHT22;3516;47.980;8.808;2023-03-01T09:41:10;-0.80;99.90
6954;DHT22;3516;47.980;8.808;2023-03-01T09:43:44;-0.80;99.90
6954;DHT22;3516;47.980;8.808;2023-03-01T09:46:15;-0.80;99.90
6954;DHT22;3516;47.980;8.808;2023-03-01T09:48:44;-0.80;99.90
6954;DHT22;3516;47.980;8.808;2023-03-01T09:51:16;-0.80;99.90
6954;DHT22;3516;47.980;8.808;2023-03-01T09:53:44;-0.80;99.90
6954;DHT22;3516;47.980;8.808;2023-03-01T09:56:15;-0.80;99.90
6954;DHT22;3516;47.980;8.808;2023-03-01T09:58:52;-0.70;99.90
6954;DHT22;3516;47.980;8.808;2023-03-01T10:01:28;-0.70;99.90
6954;DHT22;3516;47.980;8.808;2023-03-01T10:04:06;-0.60;99.90
6954;DHT22;3516;47.980;8.808;2023-03-01T10:06:38;-0.60;99.90
6954;DHT22;3516;47.980;8.808;2023-03-01T10:09:11;-0.60;99.90
6954;DHT22;3516;47.980;8.808;2023-03-01T10:11:43;-0.70;99.90
6954;DHT22;3516;47.980;8.808;2023-03-01T10:14:18;-0.70;99.90
6954;DHT22;3516;47.980;8.808;2023-03-01T10:16:54;-0.70;99.90
6954;DHT22;3516;47.980;8.808;2023-03-01T10:19:28;-0.70;99.90
6954;DHT22;3516;47.980;8.808;2023-03-01T10:22:00;-0.60;99.90
6954;DHT22;3516;47.980;8.808;2023-03-01T10:24:32;-0.60;99.90
6954;DHT22;3516;47.980;8.808;2023-03-01T10:27:05;-0.60;99.90
6954;DHT22;3516;47.980;8.808;2023-03-01T10:29:37;-0.60;99.90
6954;DHT22;3516;47.980;8.808;2023-03-01T10:32:09;-0.60;99.90
6954;DHT22;3516;47.980;8.808;2023-03-01T10:34:36;-0.60;99.90
6954;DHT22;3516;47.980;8.808;2023-03-01T10:37:10;-0.50;99.90
6954;DHT22;3516;47.980;8.808;2023-03-01T10:39:54;-0.50;99.90
6954;DHT22;3516;47.980;8.808;2023-03-01T10:42:26;-0.40;99.90
6954;DHT22;3516;47.980;8.808;2023-03-01T10:44:54;-0.40;99.90
6954;DHT22;3516;47.980;8.808;2023-03-01T10:47:24;-0.40;99.90
6954;DHT22;3516;47.980;8.808;2023-03-01T10:49:55;-0.30;99.90
6954;DHT22;3516;47.980;8.808;2023-03-01T10:52:24;-0.40;99.90
6954;DHT22;3516;47.980;8.808;2023-03-01T10:54:54;-0.30;99.90
6954;DHT22;3516;47.980;8.808;2023-03-01T10:57:33;-0.30;99.90
6954;DHT22;3516;47.980;8.808;2023-03-01T11:00:19;-0.30;99.90
6954;DHT22;3516;47.980;8.808;2023-03-01T11:02:51;-0.30;99.90
6954;DHT22;3516;47.980;8.808;2023-03-01T11:05:23;-0.30;99.90
6954;DHT22;3516;47.980;8.808;2023-03-01T11:07:51;-0.20;99.90
6954;DHT22;3516;47.980;8.808;2023-03-01T11:10:20;-0.20;99.90
6954;DHT22;3516;47.980;8.808;2023-03-01T11:15:26;-0.10;99.90
6954;DHT22;3516;47.980;8.808;2023-03-01T11:17:56;-0.10;99.90
6954;DHT22;3516;47.980;8.808;2023-03-01T11:20:29;-0.10;99.90
6954;DHT22;3516;47.980;8.808;2023-03-01T11:23:01;-0.10;99.90
6954;DHT22;3516;47.980;8.808;2023-03-01T11:25:33;0.00;99.90
6954;DHT22;3516;47.980;8.808;2023-03-01T11:28:04;0.00;99.90
6954;DHT22;3516;47.980;8.808;2023-03-01T11:30:35;0.10;99.90
6954;DHT22;3516;47.980;8.808;2023-03-01T11:33:13;0.20;99.90
6954;DHT22;3516;47.980;8.808;2023-03-01T11:35:46;0.20;99.90
6954;DHT22;3516;47.980;8.808;2023-03-01T11:38:21;0.20;99.90
6954;DHT22;3516;47.980;8.808;2023-03-01T11:40:52;0.30;99.90
6954;DHT22;3516;47.980;8.808;2023-03-01T11:43:26;0.30;99.90
6954;DHT22;3516;47.980;8.808;2023-03-01T11:48:55;0.50;99.90
6954;DHT22;3516;47.980;8.808;2023-03-01T11:51:37;0.50;99.90
6954;DHT22;3516;47.980;8.808;2023-03-01T11:54:13;0.60;99.90
6954;DHT22;3516;47.980;8.808;2023-03-01T11:56:45;0.50;99.90
6954;DHT22;3516;47.980;8.808;2023-03-01T11:59:39;0.50;99.90
6954;DHT22;3516;47.980;8.808;2023-03-01T12:02:36;0.40;99.90
6954;DHT22;3516;47.980;8.808;2023-03-01T12:05:24;0.40;99.90
6954;DHT22;3516;47.980;8.808;2023-03-01T12:07:58;0.40;99.90
6954;DHT22;3516;47.980;8.808;2023-03-01T12:10:30;0.50;99.90
6954;DHT22;3516;47.980;8.808;2023-03-01T12:13:22;0.60;99.90
6954;DHT22;3516;47.980;8.808;2023-03-01T12:16:17;0.60;99.90
6954;DHT22;3516;47.980;8.808;2023-03-01T12:19:00;0.60;99.90
6954;DHT22;3516;47.980;8.808;2023-03-01T12:21:42;0.70;99.90
6954;DHT22;3516;47.980;8.808;2023-03-01T12:24:39;0.70;99.90
6954;DHT22;3516;47.980;8.808;2023-03-01T12:27:20;0.70;99.90
6954;DHT22;3516;47.980;8.808;2023-03-01T12:29:54;0.70;99.90
6954;DHT22;3516;47.980;8.808;2023-03-01T12:32:33;0.70;99.90
6954;DHT22;3516;47.980;8.808;2023-03-01T12:35:25;0.70;99.90
6954;DHT22;3516;47.980;8.808;2023-03-01T12:38:02;0.70;99.90
6954;DHT22;3516;47.980;8.808;2023-03-01T12:41:00;0.80;99.90
6954;DHT22;3516;47.980;8.808;2023-03-01T12:43:39;0.90;99.90
6954;DHT22;3516;47.980;8.808;2023-03-01T12:46:19;1.10;99.90
6954;DHT22;3516;47.980;8.808;2023-03-01T12:48:53;1.10;99.90
6954;DHT22;3516;47.980;8.808;2023-03-01T12:51:24;1.30;99.90
6954;DHT22;3516;47.980;8.808;2023-03-01T12:53:55;1.20;99.90
6954;DHT22;3516;47.980;8.808;2023-03-01T12:56:25;1.20;99.90
6954;DHT22;3516;47.980;8.808;2023-03-01T12:58:59;1.30;99.90
6954;DHT22;3516;47.980;8.808;2023-03-01T13:01:38;1.30;99.90
6954;DHT22;3516;47.980;8.808;2023-03-01T13:04:29;1.30;99.90
6954;DHT22;3516;47.980;8.808;2023-03-01T13:07:07;1.40;99.90
6954;DHT22;3516;47.980;8.808;2023-03-01T13:09:43;1.50;99.90
6954;DHT22;3516;47.980;8.808;2023-03-01T13:12:51;1.50;99.90
6954;DHT22;3516;47.980;8.808;2023-03-01T13:15:33;1.40;99.90
6954;DHT22;3516;47.980;8.808;2023-03-01T13:18:02;1.50;99.90
6954;DHT22;3516;47.980;8.808;2023-03-01T13:20:34;1.60;99.90
6954;DHT22;3516;47.980;8.808;2023-03-01T13:23:13;1.60;99.90
6954;DHT22;3516;47.980;8.808;2023-03-01T13:28:54;1.60;99.90
6954;DHT22;3516;47.980;8.808;2023-03-01T13:34:47;1.60;99.90
6954;DHT22;3516;47.980;8.808;2023-03-01T13:37:25;1.60;99.90
6954;DHT22;3516;47.980;8.808;2023-03-01T13:39:55;1.60;99.90
6954;DHT22;3516;47.980;8.808;2023-03-01T13:42:37;1.60;99.90
6954;DHT22;3516;47.980;8.808;2023-03-01T13:45:19;1.60;99.90
6954;DHT22;3516;47.980;8.808;2023-03-01T13:47:49;1.70;99.90
6954;DHT22;3516;47.980;8.808;2023-03-01T13:50:20;1.70;99.90
6954;DHT22;3516;47.980;8.808;2023-03-01T13:52:52;1.70;99.90
6954;DHT22;3516;47.980;8.808;2023-03-01T13:55:23;1.70;99.90
6954;DHT22;3516;47.980;8.808;2023-03-01T13:57:55;1.70;99.90
6954;DHT22;3516;47.980;8.808;2023-03-01T14:03:05;1.60;99.90
6954;DHT22;3516;47.980;8.808;2023-03-01T14:05:33;1.50;99.90
6954;DHT22;3516;47.980;8.808;2023-03-01T14:08:01;1.50;99.90
6954;DHT22;3516;47.980;8.808;2023-03-01T14:10:41;1.60;99.90
6954;DHT22;3516;47.980;8.808;2023-03-01T14:13:24;1.50;99.90
6954;DHT22;3516;47.980;8.808;2023-03-01T14:16:08;1.50;99.90
6954;DHT22;3516;47.980;8.808;2023-03-01T14:18:44;1.50;99.90
6954;DHT22;3516;47.980;8.808;2023-03-01T14:21:14;1.50;99.90
6954;DHT22;3516;47.980;8.808;2023-03-01T14:23:42;1.50;99.90
6954;DHT22;3516;47.980;8.808;2023-03-01T14:26:09;1.60;99.90
6954;DHT22;3516;47.980;8.808;2023-03-01T14:28:39;1.60;99.90
6954;DHT22;3516;47.980;8.808;2023-03-01T14:31:35;1.60;99.90
6954;DHT22;3516;47.980;8.808;2023-03-01T14:34:03;1.60;99.90
6954;DHT22;3516;47.980;8.808;2023-03-01T14:36:32;1.60;99.90
6954;DHT22;3516;47.980;8.808;2023-03-01T14:38:59;1.60;99.90
6954;DHT22;3516;47.980;8.808;2023-03-01T14:41:32;1.60;99.90
6954;DHT22;3516;47.980;8.808;2023-03-01T14:44:03;1.60;99.90
6954;DHT22;3516;47.980;8.808;2023-03-01T14:46:33;1.60;99.90
6954;DHT22;3516;47.980;8.808;2023-03-01T14:49:04;1.60;99.90
6954;DHT22;3516;47.980;8.808;2023-03-01T14:51:35;1.70;99.90
6954;DHT22;3516;47.980;8.808;2023-03-01T14:54:02;1.70;99.90
6954;DHT22;3516;47.980;8.808;2023-03-01T14:56:43;1.70;99.90
6954;DHT22;3516;47.980;8.808;2023-03-01T14:59:11;1.60;99.90
6954;DHT22;3516;47.980;8.808;2023-03-01T15:01:40;1.50;99.90
6954;DHT22;3516;47.980;8.808;2023-03-01T15:04:11;1.50;99.90
6954;DHT22;3516;47.980;8.808;2023-03-01T15:06:39;1.50;99.90
6954;DHT22;3516;47.980;8.808;2023-03-01T15:09:07;1.50;99.90
6954;DHT22;3516;47.980;8.808;2023-03-01T15:11:38;1.60;99.90
6954;DHT22;3516;47.980;8.808;2023-03-01T15:14:28;1.60;99.90
6954;DHT22;3516;47.980;8.808;2023-03-01T15:16:56;1.60;99.90
6954;DHT22;3516;47.980;8.808;2023-03-01T15:19:24;1.60;99.90
6954;DHT22;3516;47.980;8.808;2023-03-01T15:21:53;1.70;99.90
6954;DHT22;3516;47.980;8.808;2023-03-01T15:24:24;1.70;99.90
6954;DHT22;3516;47.980;8.808;2023-03-01T15:26:53;1.80;99.90
6954;DHT22;3516;47.980;8.808;2023-03-01T15:29:24;1.80;99.90
6954;DHT22;3516;47.980;8.808;2023-03-01T15:31:58;1.90;99.90
6954;DHT22;3516;47.980;8.808;2023-03-01T15:34:28;1.80;99.90
6954;DHT22;3516;47.980;8.808;2023-03-01T15:36:56;1.80;99.90
6954;DHT22;3516;47.980;8.808;2023-03-01T15:39:32;1.90;99.90
6954;DHT22;3516;47.980;8.808;2023-03-01T15:42:04;1.90;99.90
6954;DHT22;3516;47.980;8.808;2023-03-01T15:44:33;1.90;99.90
6954;DHT22;3516;47.980;8.808;2023-03-01T15:47:02;1.90;99.90
6954;DHT22;3516;47.980;8.808;2023-03-01T15:49:36;2.00;99.90
6954;DHT22;3516;47.980;8.808;2023-03-01T15:52:05;1.90;99.90
6954;DHT22;3516;47.980;8.808;2023-03-01T15:54:35;2.00;99.90
6954;DHT22;3516;47.980;8.808;2023-03-01T15:57:03;2.10;99.90
6954;DHT22;3516;47.980;8.808;2023-03-01T15:59:30;2.10;99.90
6954;DHT22;3516;47.980;8.808;2023-03-01T16:01:56;2.10;99.90
6954;DHT22;3516;47.980;8.808;2023-03-01T16:04:24;2.10;99.90
6954;DHT22;3516;47.980;8.808;2023-03-01T16:06:52;2.10;99.90
6954;DHT22;3516;47.980;8.808;2023-03-01T16:09:21;2.10;99.90
6954;DHT22;3516;47.980;8.808;2023-03-01T16:11:50;2.10;99.90
6954;DHT22;3516;47.980;8.808;2023-03-01T16:14:17;2.10;99.90
6954;DHT22;3516;47.980;8.808;2023-03-01T16:16:44;2.20;99.90
6954;DHT22;3516;47.980;8.808;2023-03-01T16:19:11;2.20;99.90
6954;DHT22;3516;47.980;8.808;2023-03-01T16:21:40;2.20;99.90
6954;DHT22;3516;47.980;8.808;2023-03-01T16:24:08;2.10;99.90
6954;DHT22;3516;47.980;8.808;2023-03-01T16:26:35;2.10;99.90
6954;DHT22;3516;47.980;8.808;2023-03-01T16:29:03;2.10;99.90
6954;DHT22;3516;47.980;8.808;2023-03-01T16:31:30;2.00;99.90
6954;DHT22;3516;47.980;8.808;2023-03-01T16:33:58;1.90;99.90
6954;DHT22;3516;47.980;8.808;2023-03-01T16:36:26;1.80;99.90
6954;DHT22;3516;47.980;8.808;2023-03-01T16:38:55;1.70;99.90
6954;DHT22;3516;47.980;8.808;2023-03-01T16:41:24;1.60;99.90
6954;DHT22;3516;47.980;8.808;2023-03-01T16:43:51;1.60;99.90
6954;DHT22;3516;47.980;8.808;2023-03-01T16:46:19;1.50;99.90
6954;DHT22;3516;47.980;8.808;2023-03-01T16:48:47;1.40;99.90
6954;DHT22;3516;47.980;8.808;2023-03-01T16:51:15;1.40;99.90
6954;DHT22;3516;47.980;8.808;2023-03-01T16:53:42;1.40;99.90
6954;DHT22;3516;47.980;8.808;2023-03-01T16:56:14;1.30;99.90
6954;DHT22;3516;47.980;8.808;2023-03-01T16:58:42;1.30;99.90
6954;DHT22;3516;47.980;8.808;2023-03-01T17:01:14;1.20;99.90
6954;DHT22;3516;47.980;8.808;2023-03-01T17:03:43;1.10;99.90
6954;DHT22;3516;47.980;8.808;2023-03-01T17:06:14;1.00;99.90
6954;DHT22;3516;47.980;8.808;2023-03-01T17:08:41;0.90;99.90
6954;DHT22;3516;47.980;8.808;2023-03-01T17:11:12;0.80;99.90
6954;DHT22;3516;47.980;8.808;2023-03-01T17:13:41;0.80;99.90
6954;DHT22;3516;47.980;8.808;2023-03-01T17:16:14;0.70;99.90
6954;DHT22;3516;47.980;8.808;2023-03-01T17:18:43;0.70;99.90
6954;DHT22;3516;47.980;8.808;2023-03-01T17:21:12;0.60;99.90
6954;DHT22;3516;47.980;8.808;2023-03-01T17:23:44;0.60;99.90
6954;DHT22;3516;47.980;8.808;2023-03-01T17:26:14;0.60;99.90
6954;DHT22;3516;47.980;8.808;2023-03-01T17:28:42;0.60;99.90
6954;DHT22;3516;47.980;8.808;2023-03-01T17:31:16;0.60;99.90
6954;DHT22;3516;47.980;8.808;2023-03-01T17:33:44;0.60;99.90
6954;DHT22;3516;47.980;8.808;2023-03-01T17:36:11;0.60;99.90
6954;DHT22;3516;47.980;8.808;2023-03-01T17:38:38;0.70;99.90
6954;DHT22;3516;47.980;8.808;2023-03-01T17:41:05;0.70;99.90
6954;DHT22;3516;47.980;8.808;2023-03-01T17:43:37;0.70;99.90
6954;DHT22;3516;47.980;8.808;2023-03-01T17:46:04;0.80;99.90
6954;DHT22;3516;47.980;8.808;2023-03-01T17:48:32;0.80;99.90
6954;DHT22;3516;47.980;8.808;2023-03-01T17:51:05;0.90;99.90
6954;DHT22;3516;47.980;8.808;2023-03-01T17:53:32;1.00;99.90
6954;DHT22;3516;47.980;8.808;2023-03-01T17:56:00;1.10;99.90
6954;DHT22;3516;47.980;8.808;2023-03-01T17:58:28;1.10;99.90
6954;DHT22;3516;47.980;8.808;2023-03-01T18:01:06;1.20;99.90
6954;DHT22;3516;47.980;8.808;2023-03-01T18:03:33;1.20;99.90
6954;DHT22;3516;47.980;8.808;2023-03-01T18:06:00;1.20;99.90
6954;DHT22;3516;47.980;8.808;2023-03-01T18:08:26;1.20;99.90
6954;DHT22;3516;47.980;8.808;2023-03-01T18:10:57;1.20;99.90
6954;DHT22;3516;47.980;8.808;2023-03-01T18:13:24;1.20;99.90
6954;DHT22;3516;47.980;8.808;2023-03-01T18:15:51;1.20;99.90
6954;DHT22;3516;47.980;8.808;2023-03-01T18:18:19;1.20;99.90
6954;DHT22;3516;47.980;8.808;2023-03-01T18:20:54;1.20;99.90
6954;DHT22;3516;47.980;8.808;2023-03-01T18:23:21;1.10;99.90
6954;DHT22;3516;47.980;8.808;2023-03-01T18:25:48;1.10;99.90
6954;DHT22;3516;47.980;8.808;2023-03-01T18:28:14;1.10;99.90
6954;DHT22;3516;47.980;8.808;2023-03-01T18:30:42;1.10;99.90
6954;DHT22;3516;47.980;8.808;2023-03-01T18:33:08;1.10;99.90
6954;DHT22;3516;47.980;8.808;2023-03-01T18:35:37;1.10;99.90
6954;DHT22;3516;47.980;8.808;2023-03-01T18:38:04;1.10;99.90
6954;DHT22;3516;47.980;8.808;2023-03-01T18:40:31;1.10;99.90
6954;DHT22;3516;47.980;8.808;2023-03-01T18:42:58;1.10;99.90
6954;DHT22;3516;47.980;8.808;2023-03-01T18:45:24;1.10;99.90
6954;DHT22;3516;47.980;8.808;2023-03-01T18:47:51;1.10;99.90
6954;DHT22;3516;47.980;8.808;2023-03-01T18:50:18;1.10;99.90
6954;DHT22;3516;47.980;8.808;2023-03-01T18:52:46;1.10;99.90
6954;DHT22;3516;47.980;8.808;2023-03-01T18:55:12;1.10;99.90
6954;DHT22;3516;47.980;8.808;2023-03-01T18:57:39;1.10;99.90
6954;DHT22;3516;47.980;8.808;2023-03-01T19:00:07;1.10;99.90
6954;DHT22;3516;47.980;8.808;2023-03-01T19:02:34;1.10;99.90
6954;DHT22;3516;47.980;8.808;2023-03-01T19:05:01;1.10;99.90
6954;DHT22;3516;47.980;8.808;2023-03-01T19:07:27;1.10;99.90
6954;DHT22;3516;47.980;8.808;2023-03-01T19:09:55;1.00;99.90
6954;DHT22;3516;47.980;8.808;2023-03-01T19:12:23;1.10;99.90
6954;DHT22;3516;47.980;8.808;2023-03-01T19:14:52;1.10;99.90
6954;DHT22;3516;47.980;8.808;2023-03-01T19:17:21;1.00;99.90
6954;DHT22;3516;47.980;8.808;2023-03-01T19:19:49;1.00;99.90
6954;DHT22;3516;47.980;8.808;2023-03-01T19:22:15;1.10;99.90
6954;DHT22;3516;47.980;8.808;2023-03-01T19:24:42;1.00;99.90
6954;DHT22;3516;47.980;8.808;2023-03-01T19:27:10;1.00;99.90
6954;DHT22;3516;47.980;8.808;2023-03-01T19:29:37;1.10;99.90
6954;DHT22;3516;47.980;8.808;2023-03-01T19:32:04;1.00;99.90
6954;DHT22;3516;47.980;8.808;2023-03-01T19:34:31;1.00;99.90
6954;DHT22;3516;47.980;8.808;2023-03-01T19:36:58;1.00;99.90
6954;DHT22;3516;47.980;8.808;2023-03-01T19:39:25;1.00;99.90
6954;DHT22;3516;47.980;8.808;2023-03-01T19:41:52;1.00;99.90
6954;DHT22;3516;47.980;8.808;2023-03-01T19:44:20;1.00;99.90
6954;DHT22;3516;47.980;8.808;2023-03-01T19:46:50;1.00;99.90
6954;DHT22;3516;47.980;8.808;2023-03-01T19:49:17;1.00;99.90
6954;DHT22;3516;47.980;8.808;2023-03-01T19:51:44;1.00;99.90
6954;DHT22;3516;47.980;8.808;2023-03-01T19:54:10;1.00;99.90
6954;DHT22;3516;47.980;8.808;2023-03-01T19:56:39;1.00;99.90
6954;DHT22;3516;47.980;8.808;2023-03-01T19:59:06;1.00;99.90
6954;DHT22;3516;47.980;8.808;2023-03-01T20:01:34;1.00;99.90
6954;DHT22;3516;47.980;8.808;2023-03-01T20:04:03;1.10;99.90
6954;DHT22;3516;47.980;8.808;2023-03-01T20:06:30;1.00;99.90
6954;DHT22;3516;47.980;8.808;2023-03-01T20:08:57;1.00;99.90
6954;DHT22;3516;47.980;8.808;2023-03-01T20:11:23;1.10;99.90
6954;DHT22;3516;47.980;8.808;2023-03-01T20:13:50;1.10;99.90
6954;DHT22;3516;47.980;8.808;2023-03-01T20:16:18;1.10;99.90
6954;DHT22;3516;47.980;8.808;2023-03-01T20:18:46;1.00;99.90
6954;DHT22;3516;47.980;8.808;2023-03-01T20:21:13;1.00;99.90
6954;DHT22;3516;47.980;8.808;2023-03-01T20:23:41;1.00;99.90
6954;DHT22;3516;47.980;8.808;2023-03-01T20:26:10;1.10;99.90
6954;DHT22;3516;47.980;8.808;2023-03-01T20:28:41;1.00;99.90
6954;DHT22;3516;47.980;8.808;2023-03-01T20:31:09;1.00;99.90
6954;DHT22;3516;47.980;8.808;2023-03-01T20:33:36;1.10;99.90
6954;DHT22;3516;47.980;8.808;2023-03-01T20:36:06;1.10;99.90
6954;DHT22;3516;47.980;8.808;2023-03-01T20:38:34;1.10;99.90
6954;DHT22;3516;47.980;8.808;2023-03-01T20:41:04;1.10;99.90
6954;DHT22;3516;47.980;8.808;2023-03-01T20:43:31;1.10;99.90
6954;DHT22;3516;47.980;8.808;2023-03-01T20:46:03;1.10;99.90
6954;DHT22;3516;47.980;8.808;2023-03-01T20:48:30;1.10;99.90
6954;DHT22;3516;47.980;8.808;2023-03-01T20:50:57;1.10;99.90
6954;DHT22;3516;47.980;8.808;2023-03-01T20:53:27;1.10;99.90
6954;DHT22;3516;47.980;8.808;2023-03-01T20:55:54;1.10;99.90
6954;DHT22;3516;47.980;8.808;2023-03-01T20:58:21;1.10;99.90
6954;DHT22;3516;47.980;8.808;2023-03-01T21:00:49;1.20;99.90
6954;DHT22;3516;47.980;8.808;2023-03-01T21:03:16;1.20;99.90
6954;DHT22;3516;47.980;8.808;2023-03-01T21:05:43;1.20;99.90
6954;DHT22;3516;47.980;8.808;2023-03-01T21:08:09;1.20;99.90
6954;DHT22;3516;47.980;8.808;2023-03-01T21:10:37;1.20;99.90
6954;DHT22;3516;47.980;8.808;2023-03-01T21:13:04;1.20;99.90
6954;DHT22;3516;47.980;8.808;2023-03-01T21:15:31;1.20;99.90
6954;DHT22;3516;47.980;8.808;2023-03-01T21:17:57;1.20;99.90
6954;DHT22;3516;47.980;8.808;2023-03-01T21:20:24;1.20;99.90
6954;DHT22;3516;47.980;8.808;2023-03-01T21:22:51;1.30;99.90
6954;DHT22;3516;47.980;8.808;2023-03-01T21:25:17;1.40;99.90
6954;DHT22;3516;47.980;8.808;2023-03-01T21:27:45;1.60;99.90
6954;DHT22;3516;47.980;8.808;2023-03-01T21:30:13;1.60;99.90
6954;DHT22;3516;47.980;8.808;2023-03-01T21:32:40;1.70;99.90
6954;DHT22;3516;47.980;8.808;2023-03-01T21:35:07;1.80;99.90
6954;DHT22;3516;47.980;8.808;2023-03-01T21:37:34;1.80;99.90
6954;DHT22;3516;47.980;8.808;2023-03-01T21:40:00;1.90;99.90
6954;DHT22;3516;47.980;8.808;2023-03-01T21:42:30;2.00;99.90
6954;DHT22;3516;47.980;8.808;2023-03-01T21:45:00;2.10;99.90
6954;DHT22;3516;47.980;8.808;2023-03-01T21:47:27;2.20;99.90
6954;DHT22;3516;47.980;8.808;2023-03-01T21:49:54;2.20;99.90
6954;DHT22;3516;47.980;8.808;2023-03-01T21:52:20;2.20;99.90
6954;DHT22;3516;47.980;8.808;2023-03-01T21:54:49;2.30;99.90
6954;DHT22;3516;47.980;8.808;2023-03-01T21:57:16;2.30;99.90
6954;DHT22;3516;47.980;8.808;2023-03-01T21:59:43;2.40;99.90
6954;DHT22;3516;47.980;8.808;2023-03-01T22:02:12;2.30;99.90
6954;DHT22;3516;47.980;8.808;2023-03-01T22:04:40;2.40;99.90
